Time;durP1;ratioP1;P1;durP2;ratioP2;P2;SDS_P1;SDS_P2;PMS_P1;PMS_P2;Temp;Humidity;BMP_temperature;BMP_pressure;BME280_temperature;BME280_humidity;BME280_pressure;Samples;Min_cycle;Max_cycle;Signal;HPM_P1;HPM_P2
2022/09/27 00:01:02;;;;;;;1.43;0.50;;;;;;;;;;5021047;28;20219;-50
2022/09/27 00:03:29;;;;;;;0.90;0.80;;;;;;;;;;5023169;28;20261;-50
2022/09/27 00:06:12;;;;;;;0.77;0.70;;;;;;;;;;5028990;28;20263;-52
2022/09/27 00:08:38;;;;;;;0.80;0.80;;;;;;;;;;5007234;28;20222;-49
2022/09/27 00:11:07;;;;;;;0.80;0.80;;;;;;;;;;5028672;28;20205;-50
2022/09/27 00:13:34;;;;;;;0.80;0.70;;;;;;;;;;5028029;28;20219;-52
2022/09/27 00:16:04;;;;;;;0.83;0.80;;;;;;;;;;5019376;28;20298;-50
2022/09/27 00:18:31;;;;;;;0.70;0.70;;;;;;;;;;5028417;28;20295;-50
2022/09/27 00:21:09;;;;;;;0.93;0.60;;;;;;;;;;5027342;28;20203;-51
2022/09/27 00:23:36;;;;;;;0.80;0.70;;;;;;;;;;5028490;28;20632;-49
2022/09/27 00:26:03;;;;;;;0.73;0.60;;;;;;;;;;5017414;28;20222;-52
2022/09/27 00:28:29;;;;;;;0.87;0.83;;;;;;;;;;5026141;28;20200;-49
2022/09/27 00:30:56;;;;;;;1.07;0.60;;;;;;;;;;5024098;28;20304;-51
2022/09/27 00:33:23;;;;;;;1.00;0.70;;;;;;;;;;5017709;28;20307;-51
2022/09/27 00:35:49;;;;;;;0.77;0.73;;;;;;;;;;5021573;28;20306;-50
2022/09/27 00:38:16;;;;;;;0.70;0.60;;;;;;;;;;5028025;28;20288;-52
2022/09/27 00:40:42;;;;;;;0.87;0.60;;;;;;;;;;5028057;28;20213;-50
2022/09/27 00:43:15;;;;;;;1.50;0.70;;;;;;;;;;5018768;28;20626;-54
2022/09/27 00:45:45;;;;;;;0.80;0.70;;;;;;;;;;5022254;28;20668;-53
2022/09/27 00:48:15;;;;;;;0.50;0.50;;;;;;;;;;5022878;28;20299;-50
2022/09/27 00:50:44;;;;;;;0.70;0.50;;;;;;;;;;5004427;28;20664;-53
2022/09/27 00:53:20;;;;;;;0.53;0.53;;;;;;;;;;5007549;28;20302;-53
2022/09/27 00:55:56;;;;;;;0.40;0.40;;;;;;;;;;5017773;28;20297;-53
2022/09/27 00:58:30;;;;;;;0.60;0.57;;;;;;;;;;5018059;28;20294;-53
2022/09/27 01:01:01;;;;;;;0.57;0.57;;;;;;;;;;5009241;28;20294;-53
2022/09/27 01:04:06;;;;;;;0.67;0.60;;;;;;;;;;5004336;28;20206;-52
2022/09/27 01:06:32;;;;;;;0.60;0.60;;;;;;;;;;5010250;28;20310;-54
2022/09/27 01:08:59;;;;;;;0.73;0.70;;;;;;;;;;5009724;28;20287;-51
2022/09/27 01:12:00;;;;;;;1.13;0.60;;;;;;;;;;5020515;28;20302;-50
2022/09/27 01:14:26;;;;;;;0.60;0.60;;;;;;;;;;5020979;28;20728;-49
2022/09/27 01:17:09;;;;;;;0.80;0.80;;;;;;;;;;5015265;28;20671;-54
2022/09/27 01:20:10;;;;;;;1.37;0.70;;;;;;;;;;5019219;28;20287;-50
2022/09/27 01:23:00;;;;;;;0.60;0.50;;;;;;;;;;5026100;28;20246;-49
2022/09/27 01:25:58;;;;;;;0.70;0.70;;;;;;;;;;5022721;28;20231;-49
2022/09/27 01:28:55;;;;;;;0.70;0.60;;;;;;;;;;5025467;28;20200;-53
2022/09/27 01:31:24;;;;;;;0.57;0.50;;;;;;;;;;5015328;28;20287;-49
2022/09/27 01:34:08;;;;;;;1.00;0.60;;;;;;;;;;5025093;28;20695;-50
2022/09/27 01:36:56;;;;;;;1.00;0.70;;;;;;;;;;5009848;28;20253;-51
2022/09/27 01:39:55;;;;;;;1.20;0.73;;;;;;;;;;5007888;28;20286;-51
2022/09/27 01:42:31;;;;;;;1.10;0.60;;;;;;;;;;5008948;28;20282;-50
2022/09/27 01:45:18;;;;;;;0.87;0.80;;;;;;;;;;5001923;28;20289;-49
2022/09/27 01:47:52;;;;;;;1.73;0.50;;;;;;;;;;5008490;28;20841;-50
2022/09/27 01:50:38;;;;;;;0.80;0.60;;;;;;;;;;5007351;28;20286;-49
2022/09/27 01:53:13;;;;;;;0.60;0.60;;;;;;;;;;5016962;28;20223;-52
2022/09/27 01:55:39;;;;;;;0.80;0.70;;;;;;;;;;5007088;28;20654;-52
2022/09/27 01:58:17;;;;;;;0.70;0.57;;;;;;;;;;5027550;28;20298;-52
2022/09/27 02:00:46;;;;;;;0.53;0.50;;;;;;;;;;5005600;28;20279;-52
2022/09/27 02:03:19;;;;;;;0.73;0.60;;;;;;;;;;5010660;28;20278;-50
2022/09/27 02:05:50;;;;;;;2.10;0.70;;;;;;;;;;5007938;28;20254;-50
2022/09/27 02:08:23;;;;;;;0.40;0.40;;;;;;;;;;5024365;28;20658;-50
2022/09/27 02:10:50;;;;;;;0.83;0.60;;;;;;;;;;5004311;28;20223;-50
2022/09/27 02:13:21;;;;;;;0.83;0.60;;;;;;;;;;5023782;28;20314;-50
2022/09/27 02:16:23;;;;;;;0.53;0.50;;;;;;;;;;5025675;28;20302;-50
2022/09/27 02:19:09;;;;;;;0.83;0.60;;;;;;;;;;5007242;28;20510;-49
2022/09/27 02:21:42;;;;;;;0.67;0.60;;;;;;;;;;5009433;28;20200;-48
2022/09/27 02:24:12;;;;;;;0.50;0.50;;;;;;;;;;5003865;28;20208;-50
2022/09/27 02:26:41;;;;;;;0.97;0.70;;;;;;;;;;5026104;28;20314;-50
2022/09/27 02:29:10;;;;;;;0.70;0.60;;;;;;;;;;5011211;28;20290;-51
2022/09/27 02:31:37;;;;;;;0.70;0.60;;;;;;;;;;5012033;28;20203;-50
2022/09/27 02:34:10;;;;;;;0.90;0.57;;;;;;;;;;5029713;28;20791;-49
2022/09/27 02:36:37;;;;;;;1.13;0.50;;;;;;;;;;5011454;28;20227;-50
2022/09/27 02:39:03;;;;;;;0.87;0.63;;;;;;;;;;5014378;28;20413;-49
2022/09/27 02:41:30;;;;;;;1.70;0.60;;;;;;;;;;5013374;28;20399;-52
2022/09/27 02:44:03;;;;;;;0.60;0.60;;;;;;;;;;5030940;28;20746;-52
2022/09/27 02:47:11;;;;;;;0.50;0.50;;;;;;;;;;5010310;28;20215;-49
2022/09/27 02:50:08;;;;;;;0.70;0.70;;;;;;;;;;5024080;28;20195;-49
2022/09/27 02:52:49;;;;;;;0.77;0.60;;;;;;;;;;5029638;28;20212;-53
2022/09/27 02:55:30;;;;;;;0.80;0.47;;;;;;;;;;5009311;28;20234;-51
2022/09/27 02:58:09;;;;;;;0.67;0.57;;;;;;;;;;5030030;28;20223;-50
2022/09/27 03:00:46;;;;;;;0.50;0.50;;;;;;;;;;5013112;28;20290;-49
2022/09/27 03:03:18;;;;;;;0.60;0.60;;;;;;;;;;5013161;28;20196;-49
2022/09/27 03:05:50;;;;;;;0.50;0.47;;;;;;;;;;5010050;28;20262;-49
2022/09/27 03:08:17;;;;;;;0.70;0.60;;;;;;;;;;5010963;28;20206;-49
2022/09/27 03:10:44;;;;;;;0.67;0.60;;;;;;;;;;5030939;28;20294;-50
2022/09/27 03:13:10;;;;;;;0.60;0.50;;;;;;;;;;5028980;28;20773;-49
2022/09/27 03:15:37;;;;;;;0.80;0.60;;;;;;;;;;5024543;28;20222;-49
2022/09/27 03:18:03;;;;;;;0.90;0.60;;;;;;;;;;5028961;28;20294;-51
2022/09/27 03:20:30;;;;;;;0.50;0.50;;;;;;;;;;5029829;28;20294;-49
2022/09/27 03:22:56;;;;;;;1.00;0.70;;;;;;;;;;5030461;28;20226;-50
2022/09/27 03:25:23;;;;;;;0.87;0.50;;;;;;;;;;5030315;28;20306;-53
2022/09/27 03:27:50;;;;;;;0.50;0.50;;;;;;;;;;5028964;28;20762;-50
2022/09/27 03:30:16;;;;;;;0.83;0.60;;;;;;;;;;5026880;28;20298;-51
2022/09/27 03:32:43;;;;;;;0.50;0.50;;;;;;;;;;5025365;28;20225;-51
2022/09/27 03:35:11;;;;;;;0.93;0.50;;;;;;;;;;5029222;28;20467;-49
2022/09/27 03:37:38;;;;;;;0.50;0.50;;;;;;;;;;5028386;28;20286;-50
2022/09/27 03:40:05;;;;;;;0.57;0.57;;;;;;;;;;5022443;28;20218;-50
2022/09/27 03:42:31;;;;;;;0.50;0.50;;;;;;;;;;5024552;28;20282;-50
2022/09/27 03:44:57;;;;;;;0.63;0.40;;;;;;;;;;5026833;28;20282;-52
2022/09/27 03:47:24;;;;;;;0.53;0.53;;;;;;;;;;5027878;28;20762;-50
2022/09/27 03:49:50;;;;;;;1.03;0.57;;;;;;;;;;5028771;28;20286;-50
2022/09/27 03:52:19;;;;;;;0.50;0.40;;;;;;;;;;5027508;28;20286;-51
2022/09/27 03:54:46;;;;;;;0.40;0.40;;;;;;;;;;5026416;28;20790;-50
2022/09/27 03:57:13;;;;;;;0.90;0.50;;;;;;;;;;5027864;28;20665;-50
2022/09/27 03:59:39;;;;;;;0.60;0.60;;;;;;;;;;5027848;28;20223;-50
2022/09/27 04:02:06;;;;;;;0.80;0.60;;;;;;;;;;5024997;28;20290;-49
2022/09/27 04:04:32;;;;;;;0.60;0.50;;;;;;;;;;5029418;28;20209;-49
2022/09/27 04:06:58;;;;;;;0.50;0.50;;;;;;;;;;5026301;28;20314;-49
2022/09/27 04:09:25;;;;;;;0.50;0.50;;;;;;;;;;5027450;28;20282;-53
2022/09/27 04:11:51;;;;;;;0.77;0.70;;;;;;;;;;5027963;28;20230;-50
2022/09/27 04:14:17;;;;;;;0.50;0.50;;;;;;;;;;5011121;28;20302;-50
2022/09/27 04:16:44;;;;;;;0.83;0.70;;;;;;;;;;5026694;28;20251;-49
2022/09/27 04:19:10;;;;;;;0.40;0.40;;;;;;;;;;5030797;28;20318;-48
2022/09/27 04:21:37;;;;;;;0.70;0.50;;;;;;;;;;5020433;28;20581;-50
2022/09/27 04:24:05;;;;;;;2.07;0.50;;;;;;;;;;5024073;28;20294;-50
2022/09/27 04:26:31;;;;;;;0.50;0.50;;;;;;;;;;5020818;28;20303;-52
2022/09/27 04:28:58;;;;;;;0.50;0.50;;;;;;;;;;5023270;28;20255;-50
2022/09/27 04:31:24;;;;;;;0.50;0.50;;;;;;;;;;5024669;28;20291;-50
2022/09/27 04:33:50;;;;;;;0.50;0.50;;;;;;;;;;5010634;28;20222;-50
2022/09/27 04:36:27;;;;;;;0.83;0.50;;;;;;;;;;5028258;28;20230;-50
2022/09/27 04:38:54;;;;;;;1.00;0.60;;;;;;;;;;5020325;28;20223;-49
2022/09/27 04:41:22;;;;;;;0.63;0.50;;;;;;;;;;5025983;28;20286;-50
2022/09/27 04:43:51;;;;;;;0.60;0.50;;;;;;;;;;5024726;28;20349;-48
2022/09/27 04:46:24;;;;;;;0.60;0.40;;;;;;;;;;5028177;28;20313;-50
2022/09/27 04:48:51;;;;;;;0.40;0.40;;;;;;;;;;5026410;28;20201;-49
2022/09/27 04:51:17;;;;;;;0.40;0.33;;;;;;;;;;5027078;28;20203;-52
2022/09/27 04:53:43;;;;;;;0.40;0.40;;;;;;;;;;5025764;28;20306;-52
2022/09/27 04:56:11;;;;;;;0.50;0.50;;;;;;;;;;5026041;28;20641;-49
2022/09/27 04:58:38;;;;;;;0.87;0.50;;;;;;;;;;5024792;28;20288;-52
2022/09/27 05:01:04;;;;;;;0.37;0.33;;;;;;;;;;5019909;28;20294;-50
2022/09/27 05:03:31;;;;;;;0.50;0.50;;;;;;;;;;5027186;28;20324;-49
2022/09/27 05:05:58;;;;;;;0.40;0.40;;;;;;;;;;5025212;28;20302;-49
2022/09/27 05:08:25;;;;;;;0.40;0.40;;;;;;;;;;5028886;28;20294;-53
2022/09/27 05:10:51;;;;;;;0.50;0.50;;;;;;;;;;5022365;28;20763;-51
2022/09/27 05:13:17;;;;;;;1.63;0.80;;;;;;;;;;5017468;28;20234;-50
2022/09/27 05:15:44;;;;;;;0.40;0.40;;;;;;;;;;5018928;28;20306;-50
2022/09/27 05:18:10;;;;;;;1.90;0.50;;;;;;;;;;5017557;28;20312;-50
2022/09/27 05:20:38;;;;;;;0.90;0.70;;;;;;;;;;5019989;28;20295;-54
2022/09/27 05:23:04;;;;;;;0.73;0.53;;;;;;;;;;5020252;28;20379;-50
2022/09/27 05:25:31;;;;;;;0.83;0.50;;;;;;;;;;5016351;28;20243;-50
2022/09/27 05:27:58;;;;;;;1.70;0.40;;;;;;;;;;5026881;28;20290;-50
2022/09/27 05:30:26;;;;;;;3.57;0.53;;;;;;;;;;5024042;28;20298;-54
2022/09/27 05:32:53;;;;;;;0.87;0.47;;;;;;;;;;5025795;28;20235;-52
2022/09/27 05:35:19;;;;;;;1.43;0.50;;;;;;;;;;5020227;28;20286;-50
2022/09/27 05:37:53;;;;;;;2.10;0.40;;;;;;;;;;5026649;28;20321;-52
2022/09/27 05:40:23;;;;;;;0.53;0.50;;;;;;;;;;5026277;28;20282;-50
2022/09/27 05:43:07;;;;;;;3.57;0.60;;;;;;;;;;5016573;28;20207;-51
2022/09/27 05:45:33;;;;;;;1.13;0.70;;;;;;;;;;5023538;28;20255;-49
2022/09/27 05:47:59;;;;;;;0.63;0.43;;;;;;;;;;5026909;28;20710;-49
2022/09/27 05:50:26;;;;;;;2.87;0.70;;;;;;;;;;5024561;28;20286;-50
2022/09/27 05:52:53;;;;;;;1.27;0.67;;;;;;;;;;5025785;28;20722;-51
2022/09/27 05:55:20;;;;;;;1.07;0.50;;;;;;;;;;5028425;28;20310;-48
2022/09/27 05:58:04;;;;;;;1.47;0.50;;;;;;;;;;5010261;28;20242;-49
2022/09/27 06:00:31;;;;;;;0.60;0.40;;;;;;;;;;5028335;28;20726;-48
2022/09/27 06:02:59;;;;;;;1.37;0.60;;;;;;;;;;5017276;28;20850;-51
2022/09/27 06:05:27;;;;;;;1.60;0.60;;;;;;;;;;5019348;28;20282;-54
2022/09/27 06:07:59;;;;;;;0.80;0.70;;;;;;;;;;5025528;28;20219;-51
2022/09/27 06:10:25;;;;;;;2.00;0.60;;;;;;;;;;5029723;28;20298;-50
2022/09/27 06:12:52;;;;;;;2.00;0.60;;;;;;;;;;5026725;28;20209;-55
2022/09/27 06:15:18;;;;;;;0.90;0.50;;;;;;;;;;5028007;28;20306;-54
2022/09/27 06:17:44;;;;;;;1.07;0.57;;;;;;;;;;5031198;28;20397;-53
2022/09/27 06:20:11;;;;;;;0.83;0.50;;;;;;;;;;5027798;28;20232;-52
2022/09/27 06:22:37;;;;;;;0.50;0.50;;;;;;;;;;5028429;28;20242;-53
2022/09/27 06:25:04;;;;;;;1.90;0.40;;;;;;;;;;5024252;28;20204;-54
2022/09/27 06:27:31;;;;;;;0.60;0.40;;;;;;;;;;5024763;28;20286;-54
2022/09/27 06:29:57;;;;;;;0.70;0.53;;;;;;;;;;5016096;28;20287;-55
2022/09/27 06:32:23;;;;;;;0.90;0.50;;;;;;;;;;5023669;28;20274;-53
2022/09/27 06:34:50;;;;;;;0.60;0.57;;;;;;;;;;5023532;28;20227;-55
2022/09/27 06:37:16;;;;;;;0.70;0.50;;;;;;;;;;5024979;28;20220;-52
2022/09/27 06:39:42;;;;;;;0.60;0.57;;;;;;;;;;5021294;28;20319;-52
2022/09/27 06:42:10;;;;;;;1.73;0.50;;;;;;;;;;5023948;28;20280;-52
2022/09/27 06:44:36;;;;;;;1.00;0.53;;;;;;;;;;5022531;28;20188;-54
2022/09/27 06:47:02;;;;;;;0.50;0.40;;;;;;;;;;5003504;28;20228;-53
2022/09/27 06:49:30;;;;;;;0.50;0.50;;;;;;;;;;5029370;28;20318;-52
2022/09/27 06:51:56;;;;;;;0.87;0.60;;;;;;;;;;5025965;28;20604;-55
2022/09/27 06:54:23;;;;;;;1.53;0.40;;;;;;;;;;5028710;28;20302;-53
2022/09/27 06:56:49;;;;;;;0.50;0.40;;;;;;;;;;5026770;28;20306;-54
2022/09/27 07:02:00;;;;;;;1.03;0.50;;;;;;;;;;5021055;28;20279;-54
2022/09/27 07:04:27;;;;;;;3.10;0.50;;;;;;;;;;5029266;28;20208;-51
2022/09/27 07:06:54;;;;;;;1.63;0.40;;;;;;;;;;5028457;28;20226;-50
2022/09/27 07:09:20;;;;;;;0.93;0.50;;;;;;;;;;5027975;28;20192;-54
2022/09/27 07:11:47;;;;;;;1.30;0.63;;;;;;;;;;5025597;28;20298;-55
2022/09/27 07:14:15;;;;;;;2.57;0.60;;;;;;;;;;5019601;28;20231;-56
2022/09/27 07:16:42;;;;;;;1.40;0.70;;;;;;;;;;5027500;28;20306;-54
2022/09/27 07:19:10;;;;;;;2.07;0.50;;;;;;;;;;5029915;28;20200;-53
2022/09/27 07:21:36;;;;;;;0.90;0.50;;;;;;;;;;5013206;28;20521;-51
2022/09/27 07:24:03;;;;;;;2.87;0.60;;;;;;;;;;5028449;28;20279;-54
2022/09/27 07:26:29;;;;;;;0.93;0.60;;;;;;;;;;5029603;28;20769;-51
2022/09/27 07:28:56;;;;;;;1.20;0.47;;;;;;;;;;5028818;28;20294;-51
2022/09/27 07:31:23;;;;;;;0.57;0.50;;;;;;;;;;5027409;28;20282;-51
2022/09/27 07:33:50;;;;;;;1.60;0.57;;;;;;;;;;5029293;28;20298;-53
2022/09/27 07:36:17;;;;;;;1.57;0.43;;;;;;;;;;5005614;28;20774;-50
2022/09/27 07:38:43;;;;;;;1.43;0.50;;;;;;;;;;5026762;28;20596;-51
2022/09/27 07:41:13;;;;;;;1.53;0.47;;;;;;;;;;5029602;28;20290;-53
2022/09/27 07:43:40;;;;;;;3.17;0.60;;;;;;;;;;5026880;28;20238;-52
2022/09/27 07:46:07;;;;;;;1.10;0.60;;;;;;;;;;5025603;28;20301;-51
2022/09/27 07:48:33;;;;;;;1.60;0.70;;;;;;;;;;5025572;28;20203;-53
2022/09/27 07:51:00;;;;;;;2.70;0.50;;;;;;;;;;5027297;28;20279;-51
2022/09/27 07:53:26;;;;;;;0.67;0.40;;;;;;;;;;5028841;28;20606;-53
2022/09/27 07:55:53;;;;;;;2.27;0.60;;;;;;;;;;5029751;28;20317;-51
2022/09/27 07:58:19;;;;;;;1.90;0.47;;;;;;;;;;5026876;28;20230;-52
2022/09/27 08:00:46;;;;;;;1.53;0.50;;;;;;;;;;5023643;28;20223;-52
2022/09/27 08:03:14;;;;;;;1.07;0.60;;;;;;;;;;5029768;28;20199;-51
2022/09/27 08:05:44;;;;;;;0.77;0.50;;;;;;;;;;5010717;28;20243;-51
2022/09/27 08:08:10;;;;;;;2.07;0.43;;;;;;;;;;5023068;28;20689;-51
2022/09/27 08:10:41;;;;;;;1.95;0.50;;;;;;;;;;5028067;28;20195;-51
2022/09/27 08:13:08;;;;;;;0.40;0.30;;;;;;;;;;5026200;28;20246;-51
2022/09/27 08:15:40;;;;;;;1.08;0.50;;;;;;;;;;5027559;28;20667;-52
2022/09/27 08:18:10;;;;;;;0.90;0.40;;;;;;;;;;5028663;28;20245;-51
2022/09/27 08:20:37;;;;;;;1.88;0.50;;;;;;;;;;5028541;28;20282;-52
2022/09/27 08:23:03;;;;;;;1.10;0.52;;;;;;;;;;5028244;28;20742;-51
2022/09/27 08:25:30;;;;;;;0.93;0.50;;;;;;;;;;5027691;28;20258;-51
2022/09/27 08:27:58;;;;;;;0.47;0.40;;;;;;;;;;5027962;28;20569;-52
2022/09/27 08:30:26;;;;;;;0.82;0.52;;;;;;;;;;5019715;28;20274;-52
2022/09/27 08:32:57;;;;;;;1.02;0.50;;;;;;;;;;5027149;28;20274;-51
2022/09/27 08:35:23;;;;;;;0.52;0.30;;;;;;;;;;5010141;28;20318;-51
2022/09/27 08:37:58;;;;;;;0.63;0.60;;;;;;;;;;5027829;28;20200;-52
2022/09/27 08:40:33;;;;;;;0.82;0.50;;;;;;;;;;5024686;28;20281;-51
2022/09/27 08:43:19;;;;;;;3.40;0.57;;;;;;;;;;5010945;28;20191;-51
2022/09/27 08:45:57;;;;;;;0.95;0.68;;;;;;;;;;5029166;28;20302;-53
2022/09/27 08:48:26;;;;;;;1.00;0.50;;;;;;;;;;5026532;28;20199;-51
2022/09/27 08:50:52;;;;;;;0.55;0.40;;;;;;;;;;5027069;28;20227;-50
2022/09/27 08:53:22;;;;;;;2.47;0.50;;;;;;;;;;5025774;28;20717;-52
2022/09/27 08:55:56;;;;;;;0.52;0.50;;;;;;;;;;5026436;28;20273;-53
2022/09/27 08:58:38;;;;;;;0.38;0.32;;;;;;;;;;5010658;28;20707;-52
2022/09/27 09:01:09;;;;;;;0.77;0.50;;;;;;;;;;5027759;28;20286;-51
2022/09/27 09:03:47;;;;;;;0.95;0.50;;;;;;;;;;5010788;28;20199;-52
2022/09/27 09:06:35;;;;;;;1.23;0.70;;;;;;;;;;5024834;28;20674;-53
2022/09/27 09:09:10;;;;;;;0.40;0.40;;;;;;;;;;5029664;28;20199;-51
2022/09/27 09:15:21;;;;;;;0.55;0.32;;;;;;;;;;5006060;28;20267;-52
2022/09/27 09:18:23;;;;;;;0.77;0.40;;;;;;;;;;4988552;28;20281;-52
2022/09/27 09:20:52;;;;;;;0.52;0.45;;;;;;;;;;4989002;28;20682;-54
2022/09/27 09:23:24;;;;;;;0.80;0.50;;;;;;;;;;5019496;28;20270;-51
2022/09/27 09:25:57;;;;;;;1.40;0.47;;;;;;;;;;5026036;28;20294;-51
2022/09/27 09:28:44;;;;;;;0.43;0.43;;;;;;;;;;5012585;28;20730;-53
2022/09/27 09:31:39;;;;;;;3.53;0.60;;;;;;;;;;5015008;28;20232;-53
2022/09/27 09:34:25;;;;;;;2.67;0.60;;;;;;;;;;5014055;28;20192;-51
2022/09/27 09:37:02;;;;;;;1.00;0.60;;;;;;;;;;5009118;28;20740;-51
2022/09/27 09:39:33;;;;;;;1.02;0.60;;;;;;;;;;4998886;28;20279;-53
2022/09/27 09:42:07;;;;;;;0.98;0.60;;;;;;;;;;5013813;28;20282;-51
2022/09/27 09:44:43;;;;;;;1.15;0.60;;;;;;;;;;5020438;28;20192;-55
2022/09/27 09:47:35;;;;;;;0.40;0.40;;;;;;;;;;5002241;28;20285;-51
2022/09/27 09:50:16;;;;;;;0.85;0.50;;;;;;;;;;5006300;28;20192;-52
2022/09/27 09:52:47;;;;;;;0.80;0.60;;;;;;;;;;5007935;28;20644;-51
2022/09/27 09:55:27;;;;;;;0.40;0.40;;;;;;;;;;5026095;28;20755;-52
2022/09/27 09:58:28;;;;;;;1.17;0.60;;;;;;;;;;5007398;28;20227;-53
2022/09/27 10:00:59;;;;;;;0.50;0.50;;;;;;;;;;5002704;28;20282;-51
2022/09/27 10:03:25;;;;;;;0.40;0.40;;;;;;;;;;5002979;28;20195;-51
2022/09/27 10:05:52;;;;;;;0.63;0.50;;;;;;;;;;5020935;28;20731;-54
2022/09/27 10:08:20;;;;;;;0.40;0.40;;;;;;;;;;4998323;28;20438;-51
2022/09/27 10:10:47;;;;;;;0.82;0.50;;;;;;;;;;5014923;28;20288;-51
2022/09/27 10:13:20;;;;;;;1.45;0.70;;;;;;;;;;5016512;28;20195;-51
2022/09/27 10:15:58;;;;;;;1.05;0.70;;;;;;;;;;5026474;28;20222;-51
2022/09/27 10:18:26;;;;;;;1.00;0.50;;;;;;;;;;5007436;28;20553;-51
2022/09/27 10:20:59;;;;;;;0.60;0.57;;;;;;;;;;5026507;28;20245;-54
2022/09/27 10:23:25;;;;;;;0.88;0.40;;;;;;;;;;5009231;28;20208;-55
2022/09/27 10:25:53;;;;;;;4.38;0.50;;;;;;;;;;5006781;28;20324;-52
2022/09/27 10:28:37;;;;;;;0.52;0.50;;;;;;;;;;5026975;28;20286;-51
2022/09/27 10:31:09;;;;;;;0.88;0.50;;;;;;;;;;5007455;28;20253;-50
2022/09/27 10:33:37;;;;;;;0.57;0.50;;;;;;;;;;5009512;28;20675;-52
2022/09/27 10:36:22;;;;;;;1.65;0.50;;;;;;;;;;4997179;28;20223;-52
2022/09/27 10:38:53;;;;;;;0.60;0.50;;;;;;;;;;5022927;28;20282;-54
2022/09/27 10:41:31;;;;;;;0.63;0.50;;;;;;;;;;5023918;28;20287;-52
2022/09/27 10:44:18;;;;;;;0.50;0.50;;;;;;;;;;5027167;28;20291;-52
2022/09/27 10:46:59;;;;;;;1.00;0.52;;;;;;;;;;5020218;28;20331;-53
2022/09/27 10:49:41;;;;;;;0.95;0.50;;;;;;;;;;4998725;28;20216;-53
2022/09/27 10:52:15;;;;;;;2.38;0.85;;;;;;;;;;5021438;28;20306;-50
2022/09/27 10:54:42;;;;;;;0.98;0.55;;;;;;;;;;5005307;28;20234;-51
2022/09/27 10:57:18;;;;;;;1.58;0.80;;;;;;;;;;5006710;28;20306;-51
2022/09/27 10:59:50;;;;;;;0.68;0.60;;;;;;;;;;5018160;28;20294;-53
2022/09/27 11:02:27;;;;;;;0.90;0.60;;;;;;;;;;5003614;28;20219;-52
2022/09/27 11:05:03;;;;;;;0.60;0.55;;;;;;;;;;5018497;28;20330;-50
2022/09/27 11:07:29;;;;;;;0.80;0.52;;;;;;;;;;5015424;28;20209;-53
2022/09/27 11:10:01;;;;;;;0.68;0.68;;;;;;;;;;5022195;28;20335;-54
2022/09/27 11:12:29;;;;;;;0.88;0.50;;;;;;;;;;5025685;28;20546;-50
2022/09/27 11:14:58;;;;;;;1.45;0.60;;;;;;;;;;5012305;28;20350;-51
2022/09/27 11:17:27;;;;;;;0.57;0.57;;;;;;;;;;5002992;28;20322;-51
2022/09/27 11:20:03;;;;;;;0.50;0.50;;;;;;;;;;5018271;28;20206;-53
2022/09/27 11:22:40;;;;;;;0.77;0.60;;;;;;;;;;5004451;28;20294;-50
2022/09/27 11:25:15;;;;;;;0.45;0.45;;;;;;;;;;5009377;28;20287;-51
2022/09/27 11:28:00;;;;;;;0.73;0.50;;;;;;;;;;5008382;28;20213;-53
2022/09/27 11:30:43;;;;;;;1.13;0.60;;;;;;;;;;5021102;28;20286;-51
2022/09/27 11:33:09;;;;;;;1.50;0.70;;;;;;;;;;5000640;28;20195;-51
2022/09/27 11:36:12;;;;;;;1.20;0.70;;;;;;;;;;5018169;28;20303;-52
2022/09/27 11:39:06;;;;;;;1.23;0.63;;;;;;;;;;5013474;28;20659;-55
2022/09/27 11:41:50;;;;;;;1.42;0.70;;;;;;;;;;5001686;28;20289;-55
2022/09/27 11:44:25;;;;;;;0.65;0.60;;;;;;;;;;5013344;28;20291;-52
2022/09/27 11:47:20;;;;;;;0.50;0.50;;;;;;;;;;5017348;28;20254;-52
2022/09/27 11:49:57;;;;;;;1.58;0.80;;;;;;;;;;5015009;28;20218;-54
2022/09/27 11:52:38;;;;;;;0.80;0.60;;;;;;;;;;4996444;28;20310;-55
2022/09/27 11:55:04;;;;;;;2.40;0.70;;;;;;;;;;4997853;28;20228;-55
2022/09/27 11:58:21;;;;;;;1.52;0.70;;;;;;;;;;5018543;28;20296;-54
2022/09/27 12:01:08;;;;;;;1.58;0.50;;;;;;;;;;4997362;28;20235;-54
2022/09/27 12:03:45;;;;;;;0.95;0.60;;;;;;;;;;5002655;28;20298;-55
2022/09/27 12:06:15;;;;;;;2.60;0.80;;;;;;;;;;4999950;28;20299;-56
2022/09/27 12:08:53;;;;;;;0.90;0.60;;;;;;;;;;5015479;28;20200;-54
2022/09/27 12:11:23;;;;;;;1.20;0.80;;;;;;;;;;5001435;28;20305;-57
2022/09/27 12:14:15;;;;;;;1.25;0.68;;;;;;;;;;5002980;28;20235;-56
2022/09/27 12:16:42;;;;;;;1.20;0.70;;;;;;;;;;5014014;28;20338;-55
2022/09/27 12:19:23;;;;;;;1.60;0.82;;;;;;;;;;5000157;28;20200;-56
2022/09/27 12:21:49;;;;;;;1.92;0.65;;;;;;;;;;5000947;28;20300;-55
2022/09/27 12:24:21;;;;;;;0.80;0.70;;;;;;;;;;5000855;28;20302;-56
2022/09/27 12:26:51;;;;;;;2.40;1.00;;;;;;;;;;4996593;28;20220;-55
2022/09/27 12:29:35;;;;;;;1.08;0.80;;;;;;;;;;4999805;28;20206;-55
2022/09/27 12:32:24;;;;;;;1.17;0.75;;;;;;;;;;5011388;28;20291;-56
2022/09/27 12:34:57;;;;;;;1.27;0.80;;;;;;;;;;4998153;28;20291;-56
2022/09/27 12:37:27;;;;;;;1.45;0.90;;;;;;;;;;5005590;28;20220;-56
2022/09/27 12:40:24;;;;;;;1.70;0.95;;;;;;;;;;5002755;28;20216;-56
2022/09/27 12:43:05;;;;;;;0.50;0.50;;;;;;;;;;5000325;28;20195;-54
2022/09/27 12:46:01;;;;;;;0.60;0.60;;;;;;;;;;5013709;28;20651;-56
2022/09/27 12:48:36;;;;;;;0.80;0.70;;;;;;;;;;4996523;28;20293;-55
2022/09/27 12:51:13;;;;;;;1.50;0.80;;;;;;;;;;5017978;28;20218;-56
2022/09/27 12:53:51;;;;;;;0.88;0.50;;;;;;;;;;5018921;28;20290;-55
2022/09/27 12:56:28;;;;;;;1.85;0.68;;;;;;;;;;5018464;28;20310;-55
2022/09/27 12:59:16;;;;;;;0.98;0.70;;;;;;;;;;4998279;28;20222;-56
2022/09/27 13:02:04;;;;;;;1.00;0.60;;;;;;;;;;5014048;28;20291;-56
2022/09/27 13:04:41;;;;;;;0.75;0.60;;;;;;;;;;5014649;28;20636;-60
2022/09/27 13:07:34;;;;;;;1.17;0.70;;;;;;;;;;5002452;28;20305;-56
2022/09/27 13:10:18;;;;;;;1.00;0.60;;;;;;;;;;5014933;28;20697;-56
2022/09/27 13:12:49;;;;;;;1.27;0.70;;;;;;;;;;5003552;28;20219;-55
2022/09/27 13:15:26;;;;;;;1.48;0.63;;;;;;;;;;5003539;28;20315;-55
2022/09/27 13:17:58;;;;;;;1.70;0.77;;;;;;;;;;5016832;28;20216;-56
2022/09/27 13:20:36;;;;;;;2.58;0.60;;;;;;;;;;5011887;28;20298;-57
2022/09/27 13:23:17;;;;;;;0.73;0.55;;;;;;;;;;5010050;28;20742;-56
2022/09/27 13:25:50;;;;;;;0.40;0.40;;;;;;;;;;5013336;28;20311;-55
2022/09/27 13:28:44;;;;;;;0.90;0.60;;;;;;;;;;5012465;28;20569;-56
2022/09/27 13:31:11;;;;;;;0.65;0.40;;;;;;;;;;5001550;28;20299;-55
2022/09/27 13:33:50;;;;;;;1.65;0.73;;;;;;;;;;5012648;28;20257;-56
2022/09/27 13:36:26;;;;;;;0.63;0.50;;;;;;;;;;5010945;28;20306;-55
2022/09/27 13:39:10;;;;;;;1.92;0.43;;;;;;;;;;5011420;28;20206;-54
2022/09/27 13:41:45;;;;;;;1.40;0.60;;;;;;;;;;5011957;28;20277;-53
2022/09/27 13:44:19;;;;;;;0.68;0.60;;;;;;;;;;5015747;28;20303;-53
2022/09/27 13:46:53;;;;;;;0.70;0.50;;;;;;;;;;5012753;28;20314;-52
2022/09/27 13:49:41;;;;;;;0.60;0.40;;;;;;;;;;4996614;28;20671;-54
2022/09/27 13:52:21;;;;;;;0.82;0.70;;;;;;;;;;5001202;28;20196;-52
2022/09/27 13:54:53;;;;;;;1.33;0.75;;;;;;;;;;5017092;28;20764;-51
2022/09/27 13:57:52;;;;;;;0.50;0.50;;;;;;;;;;5014246;28;20255;-52
2022/09/27 14:00:21;;;;;;;3.30;0.70;;;;;;;;;;4996345;28;20287;-52
2022/09/27 14:03:35;;;;;;;0.70;0.55;;;;;;;;;;4998248;28;20202;-52
2022/09/27 14:06:06;;;;;;;0.55;0.55;;;;;;;;;;5011581;28;20215;-52
2022/09/27 14:08:55;;;;;;;0.63;0.52;;;;;;;;;;5014833;28;20196;-52
2022/09/27 14:11:27;;;;;;;1.45;0.63;;;;;;;;;;5016384;28;20774;-53
2022/09/27 14:13:53;;;;;;;0.70;0.70;;;;;;;;;;5000784;28;20291;-52
2022/09/27 14:16:20;;;;;;;0.50;0.50;;;;;;;;;;4999970;28;20711;-53
2022/09/27 14:18:56;;;;;;;0.88;0.80;;;;;;;;;;4998136;28;20585;-53
2022/09/27 14:21:30;;;;;;;0.90;0.70;;;;;;;;;;4999739;28;20235;-52
2022/09/27 14:24:24;;;;;;;2.83;0.70;;;;;;;;;;5000627;28;20300;-51
2022/09/27 14:27:18;;;;;;;1.15;0.70;;;;;;;;;;5013359;28;20299;-49
2022/09/27 14:30:18;;;;;;;1.40;0.70;;;;;;;;;;5015526;28;20207;-52
2022/09/27 14:32:49;;;;;;;0.98;0.57;;;;;;;;;;4962616;28;20287;-51
2022/09/27 14:38:08;;;;;;;0.60;0.52;;;;;;;;;;5017670;28;20302;-52
2022/09/27 14:41:00;;;;;;;1.67;0.60;;;;;;;;;;5021359;28;20648;-52
2022/09/27 14:43:28;;;;;;;0.90;0.60;;;;;;;;;;5016095;28;20255;-53
2022/09/27 14:45:59;;;;;;;0.50;0.50;;;;;;;;;;5018468;28;20248;-53
2022/09/27 14:48:28;;;;;;;2.33;0.70;;;;;;;;;;5025453;28;21045;-52
2022/09/27 14:51:02;;;;;;;1.52;0.60;;;;;;;;;;5002035;28;20387;-52
2022/09/27 14:53:40;;;;;;;1.90;0.82;;;;;;;;;;5008996;28;20195;-52
2022/09/27 14:56:11;;;;;;;0.73;0.60;;;;;;;;;;5018306;28;20238;-52
2022/09/27 14:58:38;;;;;;;0.65;0.60;;;;;;;;;;5007094;28;20753;-54
2022/09/27 15:01:18;;;;;;;0.70;0.70;;;;;;;;;;5020625;28;20250;-54
2022/09/27 15:03:47;;;;;;;1.60;0.60;;;;;;;;;;5022504;28;20228;-51
2022/09/27 15:06:15;;;;;;;0.80;0.50;;;;;;;;;;5005531;28;20216;-53
2022/09/27 15:08:43;;;;;;;1.48;0.68;;;;;;;;;;5005783;28;20283;-54
2022/09/27 15:11:10;;;;;;;2.58;0.90;;;;;;;;;;5014091;28;20365;-50
2022/09/27 15:13:36;;;;;;;0.85;0.60;;;;;;;;;;5030736;28;20311;-53
2022/09/27 15:16:08;;;;;;;2.08;0.65;;;;;;;;;;5011488;28;20602;-54
2022/09/27 15:18:45;;;;;;;1.05;0.80;;;;;;;;;;5008255;28;20680;-51
2022/09/27 15:21:14;;;;;;;6.18;0.95;;;;;;;;;;5028616;28;20230;-52
2022/09/27 15:23:42;;;;;;;1.70;0.75;;;;;;;;;;5028380;28;20242;-54
2022/09/27 15:26:23;;;;;;;1.88;0.80;;;;;;;;;;5031075;28;20302;-53
2022/09/27 15:28:51;;;;;;;1.67;0.95;;;;;;;;;;5030985;28;20257;-51